createdAt,value
2018-02-13T00:00:42.842Z,7.00
2018-02-13T00:03:30.731Z,7.73
2018-02-13T00:06:18.092Z,8.07
2018-02-13T00:09:05.468Z,8.67
2018-02-13T00:11:52.904Z,7.33
2018-02-13T00:14:40.240Z,7.67
2018-02-13T00:17:27.477Z,7.57
2018-02-13T00:20:14.735Z,8.20
2018-02-13T00:23:02.760Z,8.40
2018-02-13T00:25:50.139Z,8.00
2018-02-13T00:28:37.371Z,8.50
2018-02-13T00:31:24.744Z,9.17
2018-02-13T00:34:11.960Z,8.30
2018-02-13T00:37:00.022Z,8.40
2018-02-13T00:39:47.208Z,8.83
2018-02-13T00:42:35.238Z,7.90
2018-02-13T00:45:22.406Z,8.90
2018-02-13T00:48:09.825Z,7.70
2018-02-13T00:50:57.277Z,9.60
2018-02-13T00:53:44.477Z,7.53
2018-02-13T00:56:31.869Z,8.80
2018-02-13T00:59:19.283Z,8.73
2018-02-13T01:02:08.842Z,7.90
2018-02-13T01:04:56.687Z,8.43
2018-02-13T01:07:43.880Z,8.43
2018-02-13T01:10:31.130Z,7.97
2018-02-13T01:13:18.218Z,9.37
2018-02-13T01:16:06.730Z,8.47
2018-02-13T01:18:54.027Z,8.27
2018-02-13T01:21:41.093Z,8.10
2018-02-13T01:24:29.833Z,8.97
2018-02-13T01:27:16.989Z,8.77
2018-02-13T01:30:04.961Z,8.70
2018-02-13T01:32:52.224Z,9.10
2018-02-13T01:35:39.440Z,9.37
2018-02-13T01:38:26.928Z,9.27
2018-02-13T01:41:14.272Z,9.50
2018-02-13T01:44:01.801Z,9.90
2018-02-13T01:46:49.004Z,9.73
2018-02-13T01:49:36.297Z,10.53
2018-02-13T01:52:23.457Z,9.97
2018-02-13T01:55:10.666Z,11.53
2018-02-13T01:57:57.872Z,11.80
2018-02-13T02:00:46.006Z,10.67
2018-02-13T02:03:33.463Z,10.47
2018-02-13T02:06:20.690Z,9.80
2018-02-13T02:09:07.838Z,10.10
2018-02-13T02:11:55.233Z,10.33
2018-02-13T02:14:42.441Z,9.73
2018-02-13T02:17:30.694Z,8.17
2018-02-13T02:20:18.797Z,8.33
2018-02-13T02:23:06.048Z,8.60
2018-02-13T02:25:53.171Z,8.43
2018-02-13T02:28:41.233Z,8.00
2018-02-13T02:31:28.688Z,7.77
2018-02-13T02:34:16.014Z,7.87
2018-02-13T02:37:03.170Z,7.60
2018-02-13T02:39:50.449Z,7.17
2018-02-13T02:42:37.563Z,7.83
2018-02-13T02:45:25.218Z,8.00
2018-02-13T02:48:12.496Z,7.83
2018-02-13T02:51:00.386Z,7.87
2018-02-13T02:53:47.622Z,7.63
2018-02-13T02:56:34.794Z,7.00
2018-02-13T02:59:21.956Z,7.90
2018-02-13T03:02:09.183Z,7.07
2018-02-13T03:04:56.555Z,7.43
2018-02-13T03:07:43.874Z,7.57
2018-02-13T03:10:31.755Z,6.63
2018-02-13T03:13:18.927Z,6.70
2018-02-13T03:16:06.954Z,6.30
2018-02-13T03:18:54.295Z,6.80
2018-02-13T03:21:41.443Z,5.87
2018-02-13T03:24:28.740Z,5.73
2018-02-13T03:27:16.596Z,5.70
2018-02-13T03:30:04.029Z,5.70
2018-02-13T03:32:51.165Z,5.00
2018-02-13T03:35:38.422Z,5.47
2018-02-13T03:38:26.070Z,5.40
2018-02-13T03:41:13.947Z,6.40
2018-02-13T03:44:01.467Z,5.73
2018-02-13T03:46:48.637Z,5.43
2018-02-13T03:49:36.052Z,5.43
2018-02-13T03:52:24.736Z,5.70
2018-02-13T03:55:11.997Z,5.53
2018-02-13T03:57:59.983Z,5.30
2018-02-13T04:00:47.151Z,5.50
2018-02-13T04:03:34.526Z,5.60
2018-02-13T04:06:21.868Z,5.97
2018-02-13T04:09:09.090Z,5.90
2018-02-13T04:11:56.381Z,5.70
2018-02-13T04:14:43.642Z,6.07
2018-02-13T04:17:31.353Z,5.20
2018-02-13T04:20:18.818Z,6.37
2018-02-13T04:23:06.912Z,5.73
2018-02-13T04:25:54.084Z,5.60
2018-02-13T04:28:41.347Z,5.43
2018-02-13T04:31:28.564Z,6.00
2018-02-13T04:34:15.581Z,6.00
2018-02-13T04:37:02.776Z,5.77
2018-02-13T04:39:50.840Z,5.53
2018-02-13T04:42:38.242Z,5.27
2018-02-13T04:45:26.128Z,5.43
2018-02-13T04:48:14.571Z,5.80
2018-02-13T04:51:01.675Z,5.40
2018-02-13T04:53:50.185Z,5.67
2018-02-13T04:56:37.288Z,5.27
2018-02-13T04:59:24.616Z,5.10
2018-02-13T05:02:11.747Z,5.10
2018-02-13T05:04:58.968Z,6.23
2018-02-13T05:07:46.177Z,5.03
2018-02-13T05:10:33.321Z,6.23
2018-02-13T05:13:20.568Z,4.93
2018-02-13T05:16:08.502Z,4.93
2018-02-13T05:18:56.353Z,4.77
2018-02-13T05:21:44.332Z,4.60
2018-02-13T05:24:31.757Z,5.50
2018-02-13T05:27:19.033Z,6.10
2018-02-13T05:30:07.191Z,6.10
2018-02-13T05:32:54.354Z,5.83
2018-02-13T05:35:41.464Z,5.13
2018-02-13T05:38:28.637Z,5.60
2018-02-13T05:41:16.503Z,5.33
2018-02-13T05:44:03.776Z,5.27
2018-02-13T05:46:51.016Z,5.17
2018-02-13T05:49:39.079Z,4.57
2018-02-13T05:52:26.962Z,4.60
2018-02-13T05:55:14.133Z,5.33
2018-02-13T05:58:01.509Z,5.33
2018-02-13T06:00:48.808Z,5.13
2018-02-13T06:03:35.992Z,4.90
2018-02-13T06:06:24.007Z,5.20
2018-02-13T06:09:11.179Z,5.27
2018-02-13T06:11:58.505Z,5.13
2018-02-13T06:14:45.822Z,4.80
2018-02-13T06:17:33.022Z,4.93
2018-02-13T06:20:20.320Z,5.10
2018-02-13T06:23:07.716Z,5.10
2018-02-13T06:25:54.968Z,5.43
2018-02-13T06:28:42.286Z,4.53
2018-02-13T06:31:29.554Z,4.93
2018-02-13T06:34:17.591Z,5.00
2018-02-13T06:37:04.832Z,4.40
2018-02-13T06:39:52.121Z,5.47
2018-02-13T06:42:39.447Z,4.37
2018-02-13T06:45:26.625Z,4.53
2018-02-13T06:48:13.926Z,4.93
2018-02-13T06:51:01.209Z,4.63
2018-02-13T06:53:48.602Z,4.57
2018-02-13T06:56:35.836Z,4.93
2018-02-13T06:59:22.967Z,4.87
2018-02-13T07:02:10.412Z,5.90
2018-02-13T07:04:57.810Z,4.47
2018-02-13T07:07:45.053Z,4.60
2018-02-13T07:10:32.206Z,4.20
2018-02-13T07:13:20.123Z,4.57
2018-02-13T07:16:07.297Z,5.13
2018-02-13T07:18:54.461Z,4.70
2018-02-13T07:21:41.534Z,5.20
2018-02-13T07:24:28.854Z,4.87
2018-02-13T07:27:16.069Z,5.00
2018-02-13T07:30:03.389Z,4.93
2018-02-13T07:32:50.782Z,5.23
2018-02-13T07:35:38.067Z,4.00
2018-02-13T07:38:25.214Z,4.07
2018-02-13T07:41:12.626Z,4.60
2018-02-13T07:44:00.736Z,3.90
2018-02-13T07:46:48.794Z,4.23
2018-02-13T07:49:35.929Z,4.50
2018-02-13T07:52:23.250Z,5.20
2018-02-13T07:55:10.447Z,5.13
2018-02-13T07:57:57.977Z,5.10
2018-02-13T08:00:45.833Z,4.33
2018-02-13T08:03:33.099Z,4.67
2018-02-13T08:06:20.362Z,4.70
2018-02-13T08:09:08.385Z,4.00
2018-02-13T08:11:55.796Z,4.90
2018-02-13T08:14:43.162Z,5.20
2018-02-13T08:17:30.624Z,4.80
2018-02-13T08:20:17.950Z,4.20
2018-02-13T08:23:05.246Z,4.87
2018-02-13T08:25:52.714Z,4.90
2018-02-13T08:28:39.891Z,4.80
2018-02-13T08:31:27.278Z,4.73
2018-02-13T08:34:14.802Z,4.30
2018-02-13T08:37:02.042Z,4.93
2018-02-13T08:39:49.241Z,4.30
2018-02-13T08:42:36.665Z,4.50
2018-02-13T08:45:24.030Z,4.50
2018-02-13T08:48:12.037Z,4.97
2018-02-13T08:50:59.286Z,4.60
2018-02-13T08:53:47.248Z,4.17
2018-02-13T08:56:34.477Z,4.23
2018-02-13T08:59:21.716Z,4.40
2018-02-13T09:02:08.985Z,4.30
2018-02-13T09:04:56.402Z,4.50
2018-02-13T09:30:28.847Z,4.77
2018-02-13T09:33:16.156Z,3.90
2018-02-13T09:36:03.431Z,4.47
2018-02-13T09:38:51.503Z,5.40
2018-02-13T09:41:38.573Z,4.63
2018-02-13T09:44:26.983Z,4.10
2018-02-13T09:47:14.106Z,4.03
2018-02-13T09:50:01.273Z,4.83
2018-02-13T09:52:49.327Z,4.97
2018-02-13T09:55:36.599Z,5.20
2018-02-13T09:58:23.995Z,5.37
2018-02-13T10:01:11.470Z,4.50
2018-02-13T10:03:58.659Z,5.70
2018-02-13T10:06:46.699Z,4.87
2018-02-13T10:09:34.038Z,4.83
2018-02-13T10:12:21.297Z,4.40
2018-02-13T10:15:08.779Z,5.55
2018-02-13T10:17:56.057Z,5.20
2018-02-13T10:36:58.828Z,5.90
2018-02-13T10:39:46.093Z,5.00
2018-02-13T11:05:19.883Z,6.03
2018-02-13T11:08:07.430Z,5.27
2018-02-13T11:10:54.833Z,6.00
2018-02-13T11:13:43.147Z,6.03
2018-02-13T11:16:31.077Z,5.80
2018-02-13T11:42:03.347Z,5.10
2018-02-13T11:44:50.826Z,6.30
2018-02-13T11:47:38.174Z,5.17
2018-02-13T11:50:25.356Z,5.80
2018-02-13T11:53:12.942Z,5.83
2018-02-13T11:56:00.170Z,5.10
2018-02-13T11:58:47.623Z,5.27
2018-02-13T12:01:35.190Z,5.35
2018-02-13T12:04:22.808Z,5.72
2018-02-13T12:07:10.211Z,4.90
2018-02-13T12:09:57.386Z,6.17
2018-02-13T12:12:44.661Z,5.43
2018-02-13T12:15:32.288Z,6.00
2018-02-13T12:18:19.594Z,5.20
2018-02-13T12:21:06.889Z,6.00
2018-02-13T12:23:54.196Z,5.27
2018-02-13T12:26:41.697Z,5.37
2018-02-13T12:29:29.656Z,5.43
2018-02-13T12:32:17.211Z,5.63
2018-02-13T12:35:04.828Z,6.80
2018-02-13T12:37:53.014Z,5.55
2018-02-13T12:40:40.297Z,6.07
2018-02-13T12:43:27.538Z,5.53
2018-02-13T12:46:14.857Z,5.90
2018-02-13T12:49:02.620Z,6.20
2018-02-13T12:51:50.158Z,6.80
2018-02-13T12:54:37.515Z,7.53
2018-02-13T12:57:24.953Z,6.70
2018-02-13T13:00:12.910Z,7.67
2018-02-13T13:03:00.289Z,7.70
2018-02-13T13:05:48.700Z,8.03
2018-02-13T13:08:36.754Z,7.70
2018-02-13T13:11:23.988Z,7.90
2018-02-13T13:14:11.285Z,7.60
2018-02-13T13:16:58.612Z,7.87
2018-02-13T13:19:45.921Z,8.07
2018-02-13T13:22:33.162Z,7.53
2018-02-13T13:25:20.434Z,7.57
2018-02-13T13:28:07.884Z,8.13
2018-02-13T13:30:55.255Z,7.77
2018-02-13T13:33:42.843Z,7.55
2018-02-13T13:36:30.054Z,7.57
2018-02-13T13:39:17.474Z,7.90
2018-02-13T14:04:50.089Z,8.18
2018-02-13T14:07:38.717Z,7.85
2018-02-13T14:10:26.807Z,7.80
2018-02-13T14:13:13.962Z,8.30
2018-02-13T14:16:01.311Z,8.83
2018-02-13T14:18:48.720Z,8.38
2018-02-13T14:21:36.025Z,8.13
2018-02-13T14:47:09.199Z,10.75
2018-02-13T14:49:56.554Z,11.27
2018-02-13T14:52:44.419Z,10.00
2018-02-13T14:55:31.742Z,11.47
2018-02-13T14:58:18.964Z,10.10
2018-02-13T15:01:06.239Z,10.60
2018-02-13T15:03:54.478Z,11.53
2018-02-13T15:06:41.653Z,11.63
2018-02-13T15:09:28.814Z,10.50
2018-02-13T15:12:15.917Z,12.13
2018-02-13T15:31:18.613Z,11.77
2018-02-13T15:34:06.570Z,11.80
2018-02-13T15:36:54.737Z,10.70
2018-02-13T15:39:41.887Z,10.20
2018-02-13T15:42:29.244Z,9.60
2018-02-13T15:45:17.129Z,10.27
2018-02-13T15:48:05.295Z,10.30
2018-02-13T15:50:52.333Z,10.80
2018-02-13T15:53:40.486Z,9.43
2018-02-13T15:56:27.632Z,10.57
2018-02-13T15:59:15.613Z,8.87
2018-02-13T16:02:03.164Z,9.77
2018-02-13T16:04:50.782Z,8.23
2018-02-13T16:07:38.056Z,8.23
2018-02-13T16:10:26.012Z,7.83
2018-02-13T16:13:14.306Z,7.20
2018-02-13T16:16:01.752Z,6.40
2018-02-13T16:18:49.824Z,5.80
2018-02-13T16:21:37.461Z,6.20
2018-02-13T16:24:24.745Z,6.60
2018-02-13T16:27:14.579Z,5.67
2018-02-13T16:46:18.275Z,6.63
2018-02-13T16:49:05.950Z,7.00
2018-02-13T16:51:53.443Z,7.33
2018-02-13T16:54:40.571Z,7.37
2018-02-13T16:57:27.794Z,7.80
2018-02-13T17:00:15.239Z,7.57
2018-02-13T17:03:02.903Z,7.60
2018-02-13T17:05:50.458Z,7.57
2018-02-13T17:08:38.588Z,7.70
2018-02-13T17:11:25.894Z,6.70
2018-02-13T17:14:13.395Z,7.73
2018-02-13T17:17:00.746Z,8.27
2018-02-13T17:19:48.131Z,7.37
2018-02-13T17:22:35.578Z,7.10
2018-02-13T17:25:22.774Z,8.17
2018-02-13T17:28:10.131Z,7.70
2018-02-13T17:30:58.311Z,6.50
2018-02-13T17:33:45.891Z,7.03
2018-02-13T17:36:33.216Z,6.70
2018-02-13T17:39:20.454Z,6.83
2018-02-13T17:42:09.378Z,6.60
2018-02-13T17:44:56.657Z,6.93
2018-02-13T17:47:44.085Z,5.53
2018-02-13T17:50:32.409Z,5.60
2018-02-13T17:53:19.771Z,6.77
2018-02-13T17:56:08.394Z,7.90
2018-02-13T17:58:56.781Z,6.12
2018-02-13T18:01:44.054Z,5.60
2018-02-13T18:04:32.371Z,6.55
2018-02-13T18:07:19.728Z,5.77
2018-02-13T18:10:07.269Z,6.05
2018-02-13T18:35:44.717Z,5.37
2018-02-13T18:38:33.030Z,6.77
2018-02-13T18:57:37.817Z,7.37
2018-02-13T19:00:24.994Z,7.80
2018-02-13T19:03:13.044Z,7.03
2018-02-13T19:06:00.983Z,7.53
2018-02-13T19:08:48.366Z,8.37
2018-02-13T19:11:35.976Z,7.25
2018-02-13T19:14:23.537Z,8.13
2018-02-13T19:19:58.071Z,7.97
2018-02-13T19:22:46.161Z,7.77
2018-02-13T19:25:33.651Z,7.80
2018-02-13T19:28:21.955Z,7.55
2018-02-13T19:31:09.411Z,8.87
2018-02-13T19:33:56.689Z,8.47
2018-02-13T19:59:29.958Z,8.57
2018-02-13T20:02:24.862Z,9.20
2018-02-13T20:05:13.393Z,9.13
2018-02-13T20:24:18.265Z,8.55
2018-02-13T20:27:05.594Z,9.10
2018-02-13T20:29:52.982Z,8.47
2018-02-13T20:32:40.261Z,8.17
2018-02-13T20:35:27.474Z,8.97
2018-02-13T20:38:14.714Z,8.90
2018-02-13T20:41:02.915Z,8.20
2018-02-13T20:43:49.966Z,9.73
2018-02-13T20:46:37.384Z,8.70
2018-02-13T20:49:25.087Z,9.90
2018-02-13T20:52:13.192Z,8.00
2018-02-13T20:55:00.648Z,9.10
2018-02-13T20:57:48.044Z,8.50
2018-02-13T21:00:35.865Z,9.10
2018-02-13T21:03:23.893Z,8.10
2018-02-13T21:06:12.033Z,9.07
2018-02-13T21:08:59.563Z,9.57
2018-02-13T21:11:47.744Z,8.53
2018-02-13T21:14:36.136Z,8.53
2018-02-13T21:17:23.908Z,8.90
2018-02-13T21:20:11.343Z,7.97
2018-02-13T21:22:58.485Z,8.13
2018-02-13T21:25:45.766Z,8.43
2018-02-13T21:28:33.254Z,7.70
2018-02-13T21:31:21.005Z,8.20
2018-02-13T21:34:09.052Z,7.30
2018-02-13T21:36:56.468Z,7.70
2018-02-13T22:02:29.298Z,8.77
2018-02-13T22:05:17.455Z,8.23
2018-02-13T22:08:04.958Z,9.80
2018-02-13T22:10:52.345Z,8.23
2018-02-13T22:13:39.696Z,7.83
2018-02-13T22:16:27.002Z,8.27
2018-02-13T22:19:14.534Z,7.13
2018-02-13T22:22:03.308Z,7.87
2018-02-13T22:24:51.220Z,7.68
2018-02-13T22:50:24.297Z,7.20
2018-02-13T22:53:11.476Z,7.83
2018-02-13T22:55:59.008Z,9.10
2018-02-13T22:58:47.608Z,7.85
2018-02-13T23:01:35.939Z,7.40
2018-02-13T23:04:23.519Z,8.85
2018-02-13T23:07:11.976Z,8.23
2018-02-13T23:32:44.853Z,7.37
2018-02-13T23:35:31.974Z,8.43
2018-02-13T23:38:19.680Z,7.10
2018-02-13T23:41:08.049Z,6.97
2018-02-13T23:43:55.270Z,7.37
2018-02-13T23:46:42.402Z,7.20
2018-02-13T23:49:29.801Z,7.70
2018-02-13T23:52:17.269Z,7.18
2018-02-13T23:55:05.470Z,6.60
2018-02-13T23:57:53.728Z,6.93
